sensor_id;sensor_type;location;lat;lon;timestamp;temperature;humidity
32536;DHT22;18974;50.838;4.636;2023-09-12T00:01:00;20.90;99.90
32536;DHT22;18974;50.838;4.636;2023-09-12T00:03:30;21.10;99.90
32536;DHT22;18974;50.838;4.636;2023-09-12T00:05:58;21.10;99.90
32536;DHT22;18974;50.838;4.636;2023-09-12T00:08:24;21.20;99.90
32536;DHT22;18974;50.838;4.636;2023-09-12T00:11:04;21.20;99.90
32536;DHT22;18974;50.838;4.636;2023-09-12T00:13:30;21.20;99.90
32536;DHT22;18974;50.838;4.636;2023-09-12T00:15:57;21.10;99.90
32536;DHT22;18974;50.838;4.636;2023-09-12T00:18:23;21.20;99.90
32536;DHT22;18974;50.838;4.636;2023-09-12T00:20:50;21.00;99.90
32536;DHT22;18974;50.838;4.636;2023-09-12T00:23:16;21.00;99.90
32536;DHT22;18974;50.838;4.636;2023-09-12T00:25:42;20.80;99.90
32536;DHT22;18974;50.838;4.636;2023-09-12T00:28:07;20.90;99.90
32536;DHT22;18974;50.838;4.636;2023-09-12T00:30:33;20.80;99.90
32536;DHT22;18974;50.838;4.636;2023-09-12T00:32:59;20.80;99.90
32536;DHT22;18974;50.838;4.636;2023-09-12T00:35:24;20.80;99.90
32536;DHT22;18974;50.838;4.636;2023-09-12T00:37:50;20.90;99.90
32536;DHT22;18974;50.838;4.636;2023-09-12T00:40:16;20.90;99.90
32536;DHT22;18974;50.838;4.636;2023-09-12T00:42:41;20.80;99.90
32536;DHT22;18974;50.838;4.636;2023-09-12T00:45:07;20.80;99.90
32536;DHT22;18974;50.838;4.636;2023-09-12T00:47:33;20.90;99.90
32536;DHT22;18974;50.838;4.636;2023-09-12T00:49:59;20.90;99.90
32536;DHT22;18974;50.838;4.636;2023-09-12T00:52:27;20.80;99.90
32536;DHT22;18974;50.838;4.636;2023-09-12T00:54:54;20.80;99.90
32536;DHT22;18974;50.838;4.636;2023-09-12T00:57:21;20.80;99.90
32536;DHT22;18974;50.838;4.636;2023-09-12T00:59:48;20.70;99.90
32536;DHT22;18974;50.838;4.636;2023-09-12T01:02:14;20.70;99.90
32536;DHT22;18974;50.838;4.636;2023-09-12T01:04:40;20.70;99.90
32536;DHT22;18974;50.838;4.636;2023-09-12T01:07:06;20.80;99.90
32536;DHT22;18974;50.838;4.636;2023-09-12T01:09:33;20.60;99.90
32536;DHT22;18974;50.838;4.636;2023-09-12T01:12:00;20.70;99.90
32536;DHT22;18974;50.838;4.636;2023-09-12T01:14:28;20.60;99.90
32536;DHT22;18974;50.838;4.636;2023-09-12T01:16:54;20.40;99.90
32536;DHT22;18974;50.838;4.636;2023-09-12T01:19:20;20.40;99.90
32536;DHT22;18974;50.838;4.636;2023-09-12T01:22:11;20.30;99.90
32536;DHT22;18974;50.838;4.636;2023-09-12T01:27:46;20.40;99.90
32536;DHT22;18974;50.838;4.636;2023-09-12T01:30:12;20.40;99.90
32536;DHT22;18974;50.838;4.636;2023-09-12T01:32:42;20.40;99.90
32536;DHT22;18974;50.838;4.636;2023-09-12T01:35:08;20.20;99.90
32536;DHT22;18974;50.838;4.636;2023-09-12T01:37:34;20.30;99.90
32536;DHT22;18974;50.838;4.636;2023-09-12T01:40:00;20.30;99.90
32536;DHT22;18974;50.838;4.636;2023-09-12T01:42:31;20.20;99.90
32536;DHT22;18974;50.838;4.636;2023-09-12T01:44:58;20.20;99.90
32536;DHT22;18974;50.838;4.636;2023-09-12T01:47:25;20.10;99.90
32536;DHT22;18974;50.838;4.636;2023-09-12T01:49:55;20.20;99.90
32536;DHT22;18974;50.838;4.636;2023-09-12T01:52:21;20.10;99.90
32536;DHT22;18974;50.838;4.636;2023-09-12T01:54:48;20.10;99.90
32536;DHT22;18974;50.838;4.636;2023-09-12T01:57:15;20.20;99.90
32536;DHT22;18974;50.838;4.636;2023-09-12T01:59:42;20.20;99.90
32536;DHT22;18974;50.838;4.636;2023-09-12T02:02:07;20.00;99.90
32536;DHT22;18974;50.838;4.636;2023-09-12T02:04:33;20.00;99.90
32536;DHT22;18974;50.838;4.636;2023-09-12T02:06:59;20.00;99.90
32536;DHT22;18974;50.838;4.636;2023-09-12T02:09:24;20.10;99.90
32536;DHT22;18974;50.838;4.636;2023-09-12T02:11:52;20.10;99.90
32536;DHT22;18974;50.838;4.636;2023-09-12T02:14:17;20.00;99.90
32536;DHT22;18974;50.838;4.636;2023-09-12T02:16:44;20.00;99.90
32536;DHT22;18974;50.838;4.636;2023-09-12T02:19:10;20.00;99.90
32536;DHT22;18974;50.838;4.636;2023-09-12T02:21:36;19.90;99.90
32536;DHT22;18974;50.838;4.636;2023-09-12T02:24:01;19.90;99.90
32536;DHT22;18974;50.838;4.636;2023-09-12T02:26:27;19.80;99.90
32536;DHT22;18974;50.838;4.636;2023-09-12T02:28:53;20.00;99.90
32536;DHT22;18974;50.838;4.636;2023-09-12T02:31:18;20.10;99.90
32536;DHT22;18974;50.838;4.636;2023-09-12T02:33:45;20.10;99.90
32536;DHT22;18974;50.838;4.636;2023-09-12T02:36:11;20.20;99.90
32536;DHT22;18974;50.838;4.636;2023-09-12T02:38:36;20.20;99.90
32536;DHT22;18974;50.838;4.636;2023-09-12T02:41:02;20.30;99.90
32536;DHT22;18974;50.838;4.636;2023-09-12T02:43:28;20.20;99.90
32536;DHT22;18974;50.838;4.636;2023-09-12T02:45:54;20.30;99.90
32536;DHT22;18974;50.838;4.636;2023-09-12T02:48:20;20.30;99.90
32536;DHT22;18974;50.838;4.636;2023-09-12T02:50:45;20.40;99.90
32536;DHT22;18974;50.838;4.636;2023-09-12T02:53:11;20.40;99.90
32536;DHT22;18974;50.838;4.636;2023-09-12T02:55:41;20.40;99.90
32536;DHT22;18974;50.838;4.636;2023-09-12T02:58:07;20.50;99.90
32536;DHT22;18974;50.838;4.636;2023-09-12T03:00:32;20.40;99.90
32536;DHT22;18974;50.838;4.636;2023-09-12T03:03:02;20.30;99.90
32536;DHT22;18974;50.838;4.636;2023-09-12T03:05:28;20.30;99.90
32536;DHT22;18974;50.838;4.636;2023-09-12T03:07:54;20.20;99.90
32536;DHT22;18974;50.838;4.636;2023-09-12T03:10:19;20.10;99.90
32536;DHT22;18974;50.838;4.636;2023-09-12T03:12:45;20.10;99.90
32536;DHT22;18974;50.838;4.636;2023-09-12T03:15:11;20.30;99.90
32536;DHT22;18974;50.838;4.636;2023-09-12T03:17:37;20.30;99.90
32536;DHT22;18974;50.838;4.636;2023-09-12T03:20:02;20.30;99.90
32536;DHT22;18974;50.838;4.636;2023-09-12T03:22:31;20.20;99.90
32536;DHT22;18974;50.838;4.636;2023-09-12T03:24:58;20.10;99.90
32536;DHT22;18974;50.838;4.636;2023-09-12T03:27:23;20.10;99.90
32536;DHT22;18974;50.838;4.636;2023-09-12T03:29:49;20.20;99.90
32536;DHT22;18974;50.838;4.636;2023-09-12T03:32:15;20.20;99.90
32536;DHT22;18974;50.838;4.636;2023-09-12T03:34:40;20.20;99.90
32536;DHT22;18974;50.838;4.636;2023-09-12T03:37:06;20.30;99.90
32536;DHT22;18974;50.838;4.636;2023-09-12T03:39:31;20.30;99.90
32536;DHT22;18974;50.838;4.636;2023-09-12T03:41:57;20.40;99.90
32536;DHT22;18974;50.838;4.636;2023-09-12T03:44:23;20.30;99.90
32536;DHT22;18974;50.838;4.636;2023-09-12T03:46:48;20.30;99.90
32536;DHT22;18974;50.838;4.636;2023-09-12T03:49:14;20.30;99.90
32536;DHT22;18974;50.838;4.636;2023-09-12T03:51:40;20.30;99.90
32536;DHT22;18974;50.838;4.636;2023-09-12T03:54:05;20.30;99.90
32536;DHT22;18974;50.838;4.636;2023-09-12T03:56:32;20.30;99.90
32536;DHT22;18974;50.838;4.636;2023-09-12T03:58:58;20.30;99.90
32536;DHT22;18974;50.838;4.636;2023-09-12T04:01:25;20.20;99.90
32536;DHT22;18974;50.838;4.636;2023-09-12T04:03:51;20.20;99.90
32536;DHT22;18974;50.838;4.636;2023-09-12T04:06:17;20.20;99.90
32536;DHT22;18974;50.838;4.636;2023-09-12T04:08:42;20.20;99.90
32536;DHT22;18974;50.838;4.636;2023-09-12T04:11:08;20.10;99.90
32536;DHT22;18974;50.838;4.636;2023-09-12T04:13:33;20.00;99.90
32536;DHT22;18974;50.838;4.636;2023-09-12T04:15:59;20.00;99.90
32536;DHT22;18974;50.838;4.636;2023-09-12T04:18:25;20.20;99.90
32536;DHT22;18974;50.838;4.636;2023-09-12T04:20:50;20.10;99.90
32536;DHT22;18974;50.838;4.636;2023-09-12T04:23:16;20.00;99.90
32536;DHT22;18974;50.838;4.636;2023-09-12T04:25:42;19.90;99.90
32536;DHT22;18974;50.838;4.636;2023-09-12T04:28:08;19.90;99.90
32536;DHT22;18974;50.838;4.636;2023-09-12T04:30:35;20.00;99.90
32536;DHT22;18974;50.838;4.636;2023-09-12T04:33:00;20.00;99.90
32536;DHT22;18974;50.838;4.636;2023-09-12T04:35:26;19.90;99.90
32536;DHT22;18974;50.838;4.636;2023-09-12T04:37:52;19.80;99.90
32536;DHT22;18974;50.838;4.636;2023-09-12T04:40:17;19.70;99.90
32536;DHT22;18974;50.838;4.636;2023-09-12T04:42:43;19.70;99.90
32536;DHT22;18974;50.838;4.636;2023-09-12T04:45:09;19.70;99.90
32536;DHT22;18974;50.838;4.636;2023-09-12T04:47:35;19.80;99.90
32536;DHT22;18974;50.838;4.636;2023-09-12T04:50:01;19.80;99.90
32536;DHT22;18974;50.838;4.636;2023-09-12T04:52:27;19.70;99.90
32536;DHT22;18974;50.838;4.636;2023-09-12T04:54:52;19.60;99.90
32536;DHT22;18974;50.838;4.636;2023-09-12T04:57:18;19.60;99.90
32536;DHT22;18974;50.838;4.636;2023-09-12T04:59:44;19.60;99.90
32536;DHT22;18974;50.838;4.636;2023-09-12T05:02:09;19.70;99.90
32536;DHT22;18974;50.838;4.636;2023-09-12T05:04:35;19.80;99.90
32536;DHT22;18974;50.838;4.636;2023-09-12T05:07:01;19.80;99.90
32536;DHT22;18974;50.838;4.636;2023-09-12T05:09:27;19.90;99.90
32536;DHT22;18974;50.838;4.636;2023-09-12T05:11:52;20.00;99.90
32536;DHT22;18974;50.838;4.636;2023-09-12T05:14:18;19.90;99.90
32536;DHT22;18974;50.838;4.636;2023-09-12T05:16:44;19.90;99.90
32536;DHT22;18974;50.838;4.636;2023-09-12T05:19:09;19.80;99.90
32536;DHT22;18974;50.838;4.636;2023-09-12T05:21:35;19.80;99.90
32536;DHT22;18974;50.838;4.636;2023-09-12T05:24:01;19.80;99.90
32536;DHT22;18974;50.838;4.636;2023-09-12T05:26:26;19.70;99.90
32536;DHT22;18974;50.838;4.636;2023-09-12T05:28:52;19.60;99.90
32536;DHT22;18974;50.838;4.636;2023-09-12T05:31:18;19.60;99.90
32536;DHT22;18974;50.838;4.636;2023-09-12T05:33:44;19.60;99.90
32536;DHT22;18974;50.838;4.636;2023-09-12T05:36:09;19.70;99.90
32536;DHT22;18974;50.838;4.636;2023-09-12T05:38:35;19.70;99.90
32536;DHT22;18974;50.838;4.636;2023-09-12T05:41:00;19.70;99.90
32536;DHT22;18974;50.838;4.636;2023-09-12T05:43:27;19.70;99.90
32536;DHT22;18974;50.838;4.636;2023-09-12T05:45:52;19.80;99.90
32536;DHT22;18974;50.838;4.636;2023-09-12T05:48:18;19.80;99.90
32536;DHT22;18974;50.838;4.636;2023-09-12T05:50:44;19.70;99.90
32536;DHT22;18974;50.838;4.636;2023-09-12T05:53:10;19.70;99.90
32536;DHT22;18974;50.838;4.636;2023-09-12T05:55:36;19.60;99.90
32536;DHT22;18974;50.838;4.636;2023-09-12T05:58:02;19.50;99.90
32536;DHT22;18974;50.838;4.636;2023-09-12T06:00:31;19.40;99.90
32536;DHT22;18974;50.838;4.636;2023-09-12T06:02:57;19.40;99.90
32536;DHT22;18974;50.838;4.636;2023-09-12T06:05:22;19.40;99.90
32536;DHT22;18974;50.838;4.636;2023-09-12T06:07:48;19.50;99.90
32536;DHT22;18974;50.838;4.636;2023-09-12T06:10:14;19.60;99.90
32536;DHT22;18974;50.838;4.636;2023-09-12T06:12:39;19.70;99.90
32536;DHT22;18974;50.838;4.636;2023-09-12T06:15:05;19.70;99.90
32536;DHT22;18974;50.838;4.636;2023-09-12T06:17:31;19.70;99.90
32536;DHT22;18974;50.838;4.636;2023-09-12T06:19:57;19.80;99.90
32536;DHT22;18974;50.838;4.636;2023-09-12T06:22:23;19.80;99.90
32536;DHT22;18974;50.838;4.636;2023-09-12T06:24:53;19.80;99.90
32536;DHT22;18974;50.838;4.636;2023-09-12T06:27:18;19.90;99.90
32536;DHT22;18974;50.838;4.636;2023-09-12T06:29:48;20.00;99.90
32536;DHT22;18974;50.838;4.636;2023-09-12T06:32:23;20.10;99.90
32536;DHT22;18974;50.838;4.636;2023-09-12T06:34:48;20.30;99.90
32536;DHT22;18974;50.838;4.636;2023-09-12T06:37:14;20.30;99.90
32536;DHT22;18974;50.838;4.636;2023-09-12T06:39:40;20.20;99.90
32536;DHT22;18974;50.838;4.636;2023-09-12T06:42:06;20.20;99.90
32536;DHT22;18974;50.838;4.636;2023-09-12T06:44:32;20.30;99.90
32536;DHT22;18974;50.838;4.636;2023-09-12T06:46:57;20.40;99.90
32536;DHT22;18974;50.838;4.636;2023-09-12T06:49:23;20.50;99.90
32536;DHT22;18974;50.838;4.636;2023-09-12T06:51:49;20.60;99.90
32536;DHT22;18974;50.838;4.636;2023-09-12T06:54:14;20.70;99.90
32536;DHT22;18974;50.838;4.636;2023-09-12T06:56:40;20.70;99.90
32536;DHT22;18974;50.838;4.636;2023-09-12T06:59:08;20.80;99.90
32536;DHT22;18974;50.838;4.636;2023-09-12T07:01:34;20.90;99.90
32536;DHT22;18974;50.838;4.636;2023-09-12T07:03:59;21.00;99.90
32536;DHT22;18974;50.838;4.636;2023-09-12T07:06:25;21.20;99.90
32536;DHT22;18974;50.838;4.636;2023-09-12T07:08:51;21.30;99.90
32536;DHT22;18974;50.838;4.636;2023-09-12T07:11:19;21.50;99.90
32536;DHT22;18974;50.838;4.636;2023-09-12T07:13:45;21.70;99.90
32536;DHT22;18974;50.838;4.636;2023-09-12T07:16:11;21.90;99.90
32536;DHT22;18974;50.838;4.636;2023-09-12T07:18:37;22.00;99.90
32536;DHT22;18974;50.838;4.636;2023-09-12T07:21:05;22.10;99.90
32536;DHT22;18974;50.838;4.636;2023-09-12T07:23:31;22.20;99.90
32536;DHT22;18974;50.838;4.636;2023-09-12T07:25:58;22.40;99.90
32536;DHT22;18974;50.838;4.636;2023-09-12T07:28:24;22.40;99.90
32536;DHT22;18974;50.838;4.636;2023-09-12T07:30:50;22.70;99.90
32536;DHT22;18974;50.838;4.636;2023-09-12T07:33:16;22.90;99.90
32536;DHT22;18974;50.838;4.636;2023-09-12T07:35:42;23.10;99.90
32536;DHT22;18974;50.838;4.636;2023-09-12T07:38:08;23.20;99.90
32536;DHT22;18974;50.838;4.636;2023-09-12T07:40:33;23.40;99.90
32536;DHT22;18974;50.838;4.636;2023-09-12T07:42:59;23.60;99.90
32536;DHT22;18974;50.838;4.636;2023-09-12T07:45:25;23.70;99.90
32536;DHT22;18974;50.838;4.636;2023-09-12T07:47:50;23.90;99.90
32536;DHT22;18974;50.838;4.636;2023-09-12T07:50:16;23.90;99.90
32536;DHT22;18974;50.838;4.636;2023-09-12T07:52:42;24.10;99.90
32536;DHT22;18974;50.838;4.636;2023-09-12T07:55:08;24.20;99.90
32536;DHT22;18974;50.838;4.636;2023-09-12T07:57:34;24.50;99.90
32536;DHT22;18974;50.838;4.636;2023-09-12T08:00:02;24.70;99.90
32536;DHT22;18974;50.838;4.636;2023-09-12T08:02:30;24.90;99.90
32536;DHT22;18974;50.838;4.636;2023-09-12T08:04:55;24.90;99.90
32536;DHT22;18974;50.838;4.636;2023-09-12T08:07:21;25.00;99.90
32536;DHT22;18974;50.838;4.636;2023-09-12T08:12:18;25.20;99.90
32536;DHT22;18974;50.838;4.636;2023-09-12T08:14:44;25.20;99.90
32536;DHT22;18974;50.838;4.636;2023-09-12T08:17:11;25.30;99.90
32536;DHT22;18974;50.838;4.636;2023-09-12T08:19:37;25.20;99.90
32536;DHT22;18974;50.838;4.636;2023-09-12T08:22:03;25.20;99.90
32536;DHT22;18974;50.838;4.636;2023-09-12T08:24:29;25.40;99.90
32536;DHT22;18974;50.838;4.636;2023-09-12T08:26:54;25.40;99.90
32536;DHT22;18974;50.838;4.636;2023-09-12T08:29:20;25.30;99.90
32536;DHT22;18974;50.838;4.636;2023-09-12T08:31:46;25.20;99.90
32536;DHT22;18974;50.838;4.636;2023-09-12T08:34:14;25.00;99.90
32536;DHT22;18974;50.838;4.636;2023-09-12T08:36:40;24.90;99.90
32536;DHT22;18974;50.838;4.636;2023-09-12T08:39:06;24.90;99.90
32536;DHT22;18974;50.838;4.636;2023-09-12T08:41:34;24.80;99.90
32536;DHT22;18974;50.838;4.636;2023-09-12T08:44:01;24.80;99.90
32536;DHT22;18974;50.838;4.636;2023-09-12T08:46:27;24.90;99.90
32536;DHT22;18974;50.838;4.636;2023-09-12T08:48:55;24.90;99.90
32536;DHT22;18974;50.838;4.636;2023-09-12T08:51:24;25.10;99.90
32536;DHT22;18974;50.838;4.636;2023-09-12T08:53:51;25.30;99.90
32536;DHT22;18974;50.838;4.636;2023-09-12T08:56:17;25.40;99.90
32536;DHT22;18974;50.838;4.636;2023-09-12T08:58:44;25.60;99.90
32536;DHT22;18974;50.838;4.636;2023-09-12T09:01:13;25.60;99.90
32536;DHT22;18974;50.838;4.636;2023-09-12T09:03:41;25.60;99.90
32536;DHT22;18974;50.838;4.636;2023-09-12T09:06:08;25.50;99.90
32536;DHT22;18974;50.838;4.636;2023-09-12T09:08:35;25.50;99.90
32536;DHT22;18974;50.838;4.636;2023-09-12T09:11:01;25.50;99.90
32536;DHT22;18974;50.838;4.636;2023-09-12T09:13:32;25.60;99.90
32536;DHT22;18974;50.838;4.636;2023-09-12T09:16:18;25.70;99.90
32536;DHT22;18974;50.838;4.636;2023-09-12T09:18:55;25.80;99.90
32536;DHT22;18974;50.838;4.636;2023-09-12T09:21:22;25.90;99.90
32536;DHT22;18974;50.838;4.636;2023-09-12T09:23:50;26.10;99.90
32536;DHT22;18974;50.838;4.636;2023-09-12T09:26:16;26.20;99.90
32536;DHT22;18974;50.838;4.636;2023-09-12T09:28:41;26.40;99.90
32536;DHT22;18974;50.838;4.636;2023-09-12T09:31:12;26.70;99.90
32536;DHT22;18974;50.838;4.636;2023-09-12T09:33:40;26.90;99.90
32536;DHT22;18974;50.838;4.636;2023-09-12T09:36:07;27.00;99.90
32536;DHT22;18974;50.838;4.636;2023-09-12T09:38:36;26.90;99.90
32536;DHT22;18974;50.838;4.636;2023-09-12T09:41:06;27.00;99.90
32536;DHT22;18974;50.838;4.636;2023-09-12T09:43:32;27.00;99.90
32536;DHT22;18974;50.838;4.636;2023-09-12T09:45:58;27.00;99.90
32536;DHT22;18974;50.838;4.636;2023-09-12T09:48:25;27.00;99.90
32536;DHT22;18974;50.838;4.636;2023-09-12T09:51:03;27.10;99.90
32536;DHT22;18974;50.838;4.636;2023-09-12T09:53:32;27.30;99.90
32536;DHT22;18974;50.838;4.636;2023-09-12T09:58:35;27.20;99.90
32536;DHT22;18974;50.838;4.636;2023-09-12T10:01:01;26.80;99.90
32536;DHT22;18974;50.838;4.636;2023-09-12T10:03:30;26.70;99.90
32536;DHT22;18974;50.838;4.636;2023-09-12T10:05:59;26.60;99.90
32536;DHT22;18974;50.838;4.636;2023-09-12T10:08:28;26.50;99.90
32536;DHT22;18974;50.838;4.636;2023-09-12T10:10:54;26.70;99.90
32536;DHT22;18974;50.838;4.636;2023-09-12T10:13:21;26.80;99.90
32536;DHT22;18974;50.838;4.636;2023-09-12T10:15:47;27.00;99.90
32536;DHT22;18974;50.838;4.636;2023-09-12T10:18:19;27.20;99.90
32536;DHT22;18974;50.838;4.636;2023-09-12T10:20:52;27.40;99.90
32536;DHT22;18974;50.838;4.636;2023-09-12T10:23:27;27.50;99.90
32536;DHT22;18974;50.838;4.636;2023-09-12T10:25:57;27.50;99.90
32536;DHT22;18974;50.838;4.636;2023-09-12T10:28:25;27.70;99.90
32536;DHT22;18974;50.838;4.636;2023-09-12T10:30:52;27.60;99.90
32536;DHT22;18974;50.838;4.636;2023-09-12T10:33:19;27.70;99.90
32536;DHT22;18974;50.838;4.636;2023-09-12T10:35:46;27.80;99.90
32536;DHT22;18974;50.838;4.636;2023-09-12T10:38:13;27.50;99.90
32536;DHT22;18974;50.838;4.636;2023-09-12T10:40:42;27.20;99.90
32536;DHT22;18974;50.838;4.636;2023-09-12T10:43:09;27.00;99.90
32536;DHT22;18974;50.838;4.636;2023-09-12T10:45:36;27.00;99.90
32536;DHT22;18974;50.838;4.636;2023-09-12T10:48:03;27.20;99.90
32536;DHT22;18974;50.838;4.636;2023-09-12T10:50:29;27.40;99.90
32536;DHT22;18974;50.838;4.636;2023-09-12T10:53:07;27.60;99.90
32536;DHT22;18974;50.838;4.636;2023-09-12T10:55:33;27.50;99.90
32536;DHT22;18974;50.838;4.636;2023-09-12T10:58:03;27.40;99.90
32536;DHT22;18974;50.838;4.636;2023-09-12T11:00:29;27.40;99.90
32536;DHT22;18974;50.838;4.636;2023-09-12T11:02:58;27.30;99.90
32536;DHT22;18974;50.838;4.636;2023-09-12T11:08:01;27.40;99.90
32536;DHT22;18974;50.838;4.636;2023-09-12T11:10:27;27.70;99.90
32536;DHT22;18974;50.838;4.636;2023-09-12T11:12:57;27.80;99.90
32536;DHT22;18974;50.838;4.636;2023-09-12T11:15:25;27.80;99.90
32536;DHT22;18974;50.838;4.636;2023-09-12T11:18:09;28.00;99.90
32536;DHT22;18974;50.838;4.636;2023-09-12T11:21:00;28.20;99.90
32536;DHT22;18974;50.838;4.636;2023-09-12T11:23:28;28.40;99.90
32536;DHT22;18974;50.838;4.636;2023-09-12T11:26:07;28.60;99.90
32536;DHT22;18974;50.838;4.636;2023-09-12T11:28:33;28.70;99.90
32536;DHT22;18974;50.838;4.636;2023-09-12T11:30:59;28.70;99.90
32536;DHT22;18974;50.838;4.636;2023-09-12T11:33:25;29.00;99.90
32536;DHT22;18974;50.838;4.636;2023-09-12T11:35:55;28.90;99.90
32536;DHT22;18974;50.838;4.636;2023-09-12T11:38:30;28.90;99.90
32536;DHT22;18974;50.838;4.636;2023-09-12T11:40:57;28.70;99.90
32536;DHT22;18974;50.838;4.636;2023-09-12T11:43:25;28.70;99.90
32536;DHT22;18974;50.838;4.636;2023-09-12T11:45:51;28.80;99.90
32536;DHT22;18974;50.838;4.636;2023-09-12T11:48:18;28.70;99.90
32536;DHT22;18974;50.838;4.636;2023-09-12T11:50:55;28.50;99.90
32536;DHT22;18974;50.838;4.636;2023-09-12T11:53:26;28.40;99.90
32536;DHT22;18974;50.838;4.636;2023-09-12T11:55:58;28.40;99.90
32536;DHT22;18974;50.838;4.636;2023-09-12T11:58:24;28.70;99.90
32536;DHT22;18974;50.838;4.636;2023-09-12T12:00:52;29.00;99.90
32536;DHT22;18974;50.838;4.636;2023-09-12T12:03:21;29.10;99.90
32536;DHT22;18974;50.838;4.636;2023-09-12T12:05:47;29.20;99.90
32536;DHT22;18974;50.838;4.636;2023-09-12T12:08:15;29.40;99.90
32536;DHT22;18974;50.838;4.636;2023-09-12T12:10:41;29.40;99.90
32536;DHT22;18974;50.838;4.636;2023-09-12T12:13:11;29.40;99.90
32536;DHT22;18974;50.838;4.636;2023-09-12T12:15:37;29.50;99.90
32536;DHT22;18974;50.838;4.636;2023-09-12T12:18:03;29.70;99.90
32536;DHT22;18974;50.838;4.636;2023-09-12T12:20:29;30.00;99.90
32536;DHT22;18974;50.838;4.636;2023-09-12T12:22:55;30.30;99.90
32536;DHT22;18974;50.838;4.636;2023-09-12T12:25:21;30.50;99.90
32536;DHT22;18974;50.838;4.636;2023-09-12T12:27:48;30.60;99.90
32536;DHT22;18974;50.838;4.636;2023-09-12T12:30:14;30.70;99.90
32536;DHT22;18974;50.838;4.636;2023-09-12T12:32:40;30.80;99.90
32536;DHT22;18974;50.838;4.636;2023-09-12T12:35:07;30.90;99.90
32536;DHT22;18974;50.838;4.636;2023-09-12T12:37:33;30.70;99.90
32536;DHT22;18974;50.838;4.636;2023-09-12T12:40:00;30.30;99.90
32536;DHT22;18974;50.838;4.636;2023-09-12T12:42:33;30.10;99.90
32536;DHT22;18974;50.838;4.636;2023-09-12T12:44:59;29.90;99.90
32536;DHT22;18974;50.838;4.636;2023-09-12T12:47:25;29.70;99.90
32536;DHT22;18974;50.838;4.636;2023-09-12T12:49:52;29.60;99.90
32536;DHT22;18974;50.838;4.636;2023-09-12T12:52:27;29.50;99.90
32536;DHT22;18974;50.838;4.636;2023-09-12T12:54:53;29.30;99.90
32536;DHT22;18974;50.838;4.636;2023-09-12T12:57:20;29.20;99.90
32536;DHT22;18974;50.838;4.636;2023-09-12T12:59:48;29.10;99.90
32536;DHT22;18974;50.838;4.636;2023-09-12T13:02:15;29.00;99.90
32536;DHT22;18974;50.838;4.636;2023-09-12T13:04:41;29.00;99.90
32536;DHT22;18974;50.838;4.636;2023-09-12T13:07:06;29.20;99.90
32536;DHT22;18974;50.838;4.636;2023-09-12T13:09:33;29.10;99.90
32536;DHT22;18974;50.838;4.636;2023-09-12T13:11:59;29.20;99.90
32536;DHT22;18974;50.838;4.636;2023-09-12T13:14:25;29.20;99.90
32536;DHT22;18974;50.838;4.636;2023-09-12T13:16:57;29.20;99.90
32536;DHT22;18974;50.838;4.636;2023-09-12T13:19:23;29.20;99.90
32536;DHT22;18974;50.838;4.636;2023-09-12T13:21:49;29.10;99.90
32536;DHT22;18974;50.838;4.636;2023-09-12T13:24:15;29.10;99.90
32536;DHT22;18974;50.838;4.636;2023-09-12T13:26:40;29.00;99.90
32536;DHT22;18974;50.838;4.636;2023-09-12T13:29:06;28.90;99.90
32536;DHT22;18974;50.838;4.636;2023-09-12T13:31:32;28.90;99.90
32536;DHT22;18974;50.838;4.636;2023-09-12T13:33:57;28.90;99.90
32536;DHT22;18974;50.838;4.636;2023-09-12T13:36:23;28.80;99.90
32536;DHT22;18974;50.838;4.636;2023-09-12T13:38:52;28.80;99.90
32536;DHT22;18974;50.838;4.636;2023-09-12T13:41:18;28.80;99.90
32536;DHT22;18974;50.838;4.636;2023-09-12T13:43:43;28.80;99.90
32536;DHT22;18974;50.838;4.636;2023-09-12T13:46:12;28.70;99.90
32536;DHT22;18974;50.838;4.636;2023-09-12T13:48:38;28.70;99.90
32536;DHT22;18974;50.838;4.636;2023-09-12T13:51:04;28.60;99.90
32536;DHT22;18974;50.838;4.636;2023-09-12T13:53:31;28.50;99.90
32536;DHT22;18974;50.838;4.636;2023-09-12T13:55:57;28.50;99.90
32536;DHT22;18974;50.838;4.636;2023-09-12T13:58:24;28.50;99.90
32536;DHT22;18974;50.838;4.636;2023-09-12T14:00:49;28.40;99.90
32536;DHT22;18974;50.838;4.636;2023-09-12T14:03:15;28.30;99.90
32536;DHT22;18974;50.838;4.636;2023-09-12T14:05:41;28.30;99.90
32536;DHT22;18974;50.838;4.636;2023-09-12T14:08:07;28.40;99.90
32536;DHT22;18974;50.838;4.636;2023-09-12T14:10:32;28.40;99.90
32536;DHT22;18974;50.838;4.636;2023-09-12T14:12:58;28.40;99.90
32536;DHT22;18974;50.838;4.636;2023-09-12T14:15:24;28.30;99.90
32536;DHT22;18974;50.838;4.636;2023-09-12T14:17:51;28.20;99.90
32536;DHT22;18974;50.838;4.636;2023-09-12T14:20:16;28.10;99.90
32536;DHT22;18974;50.838;4.636;2023-09-12T14:22:43;27.80;99.90
32536;DHT22;18974;50.838;4.636;2023-09-12T14:25:09;27.60;99.90
32536;DHT22;18974;50.838;4.636;2023-09-12T14:27:43;27.30;99.90
32536;DHT22;18974;50.838;4.636;2023-09-12T14:30:10;27.00;99.90
32536;DHT22;18974;50.838;4.636;2023-09-12T14:32:36;26.90;99.90
32536;DHT22;18974;50.838;4.636;2023-09-12T14:35:03;26.70;99.90
32536;DHT22;18974;50.838;4.636;2023-09-12T14:37:29;26.60;99.90
32536;DHT22;18974;50.838;4.636;2023-09-12T14:39:54;26.40;99.90
32536;DHT22;18974;50.838;4.636;2023-09-12T14:42:21;26.50;99.90
32536;DHT22;18974;50.838;4.636;2023-09-12T14:44:47;26.40;99.90
32536;DHT22;18974;50.838;4.636;2023-09-12T14:47:13;26.50;99.90
32536;DHT22;18974;50.838;4.636;2023-09-12T14:49:38;26.50;99.90
32536;DHT22;18974;50.838;4.636;2023-09-12T14:52:04;26.50;99.90
32536;DHT22;18974;50.838;4.636;2023-09-12T14:54:30;26.50;99.90
32536;DHT22;18974;50.838;4.636;2023-09-12T14:56:56;26.60;99.90
32536;DHT22;18974;50.838;4.636;2023-09-12T14:59:22;26.50;99.90
32536;DHT22;18974;50.838;4.636;2023-09-12T15:01:47;26.60;99.90
32536;DHT22;18974;50.838;4.636;2023-09-12T15:04:13;26.50;99.90
32536;DHT22;18974;50.838;4.636;2023-09-12T15:06:39;26.40;99.90
32536;DHT22;18974;50.838;4.636;2023-09-12T15:09:05;26.40;99.90
32536;DHT22;18974;50.838;4.636;2023-09-12T15:11:31;26.30;99.90
32536;DHT22;18974;50.838;4.636;2023-09-12T15:13:57;26.20;99.90
32536;DHT22;18974;50.838;4.636;2023-09-12T15:16:24;26.20;99.90
32536;DHT22;18974;50.838;4.636;2023-09-12T15:18:51;26.10;99.90
32536;DHT22;18974;50.838;4.636;2023-09-12T15:21:17;26.10;99.90
32536;DHT22;18974;50.838;4.636;2023-09-12T15:23:43;26.00;99.90
32536;DHT22;18974;50.838;4.636;2023-09-12T15:26:09;26.00;99.90
32536;DHT22;18974;50.838;4.636;2023-09-12T15:28:35;26.00;99.90
32536;DHT22;18974;50.838;4.636;2023-09-12T15:31:00;25.90;99.90
32536;DHT22;18974;50.838;4.636;2023-09-12T15:33:29;25.70;99.90
32536;DHT22;18974;50.838;4.636;2023-09-12T15:35:55;25.70;99.90
32536;DHT22;18974;50.838;4.636;2023-09-12T15:38:21;25.50;99.90